sensor_id;sensor_type;location;lat;lon;timestamp;pressure;altitude;pressure_sealevel;temperature;humidity
41945;BME280;63122;52.424;13.458;2022-12-07T00:02:15;100596.19;;;1.33;100.00
41945;BME280;63122;52.424;13.458;2022-12-07T00:04:48;100588.38;;;1.33;100.00
41945;BME280;63122;52.424;13.458;2022-12-07T00:07:19;100583.75;;;1.38;100.00
41945;BME280;63122;52.424;13.458;2022-12-07T00:09:53;100580.28;;;1.38;100.00
41945;BME280;63122;52.424;13.458;2022-12-07T00:12:24;100585.50;;;1.38;100.00
41945;BME280;63122;52.424;13.458;2022-12-07T00:14:57;100569.16;;;1.36;100.00
41945;BME280;63122;52.424;13.458;2022-12-07T00:17:27;100574.09;;;1.26;100.00
41945;BME280;63122;52.424;13.458;2022-12-07T00:19:57;100582.91;;;1.23;100.00
41945;BME280;63122;52.424;13.458;2022-12-07T00:22:28;100570.09;;;1.35;100.00
41945;BME280;63122;52.424;13.458;2022-12-07T00:24:59;100564.44;;;1.28;100.00
41945;BME280;63122;52.424;13.458;2022-12-07T00:27:34;100571.66;;;1.23;100.00
41945;BME280;63122;52.424;13.458;2022-12-07T00:30:09;100574.53;;;1.33;100.00
41945;BME280;63122;52.424;13.458;2022-12-07T00:32:39;100577.06;;;1.34;100.00
41945;BME280;63122;52.424;13.458;2022-12-07T00:35:09;100570.94;;;1.35;100.00
41945;BME280;63122;52.424;13.458;2022-12-07T00:37:41;100562.94;;;1.38;100.00
41945;BME280;63122;52.424;13.458;2022-12-07T00:40:11;100564.16;;;1.33;100.00
41945;BME280;63122;52.424;13.458;2022-12-07T00:42:42;100568.63;;;1.16;100.00
41945;BME280;63122;52.424;13.458;2022-12-07T00:45:15;100566.66;;;1.20;100.00
41945;BME280;63122;52.424;13.458;2022-12-07T00:47:46;100556.66;;;1.13;100.00
41945;BME280;63122;52.424;13.458;2022-12-07T00:50:16;100549.50;;;1.17;100.00
41945;BME280;63122;52.424;13.458;2022-12-07T00:52:46;100547.00;;;1.15;100.00
41945;BME280;63122;52.424;13.458;2022-12-07T00:55:17;100551.56;;;1.12;100.00
41945;BME280;63122;52.424;13.458;2022-12-07T00:57:47;100552.53;;;1.24;100.00
41945;BME280;63122;52.424;13.458;2022-12-07T01:00:20;100562.59;;;1.01;98.28
41945;BME280;63122;52.424;13.458;2022-12-07T01:02:50;100539.94;;;1.03;98.29
41945;BME280;63122;52.424;13.458;2022-12-07T01:05:21;100547.53;;;1.21;98.72
41945;BME280;63122;52.424;13.458;2022-12-07T01:07:51;100544.66;;;1.11;97.33
41945;BME280;63122;52.424;13.458;2022-12-07T01:10:22;100541.25;;;1.10;97.64
41945;BME280;63122;52.424;13.458;2022-12-07T01:12:52;100548.03;;;1.13;96.70
41945;BME280;63122;52.424;13.458;2022-12-07T01:15:26;100544.97;;;1.06;97.18
41945;BME280;63122;52.424;13.458;2022-12-07T01:17:56;100547.94;;;1.00;96.41
41945;BME280;63122;52.424;13.458;2022-12-07T01:20:26;100545.50;;;0.97;95.85
41945;BME280;63122;52.424;13.458;2022-12-07T01:22:57;100541.16;;;0.97;96.76
41945;BME280;63122;52.424;13.458;2022-12-07T01:25:27;100544.88;;;0.93;96.18
41945;BME280;63122;52.424;13.458;2022-12-07T01:27:57;100537.63;;;0.98;97.40
41945;BME280;63122;52.424;13.458;2022-12-07T01:30:30;100522.41;;;0.92;96.63
41945;BME280;63122;52.424;13.458;2022-12-07T01:33:00;100522.59;;;0.89;97.16
41945;BME280;63122;52.424;13.458;2022-12-07T01:35:33;100520.38;;;0.97;96.26
41945;BME280;63122;52.424;13.458;2022-12-07T01:38:03;100520.19;;;1.00;96.60
41945;BME280;63122;52.424;13.458;2022-12-07T01:40:33;100524.72;;;0.97;96.21
41945;BME280;63122;52.424;13.458;2022-12-07T01:43:04;100523.97;;;0.95;95.76
41945;BME280;63122;52.424;13.458;2022-12-07T01:45:41;100521.19;;;0.83;96.70
41945;BME280;63122;52.424;13.458;2022-12-07T01:48:14;100514.69;;;0.91;96.60
41945;BME280;63122;52.424;13.458;2022-12-07T01:50:47;100520.56;;;0.94;95.78
41945;BME280;63122;52.424;13.458;2022-12-07T01:53:19;100505.91;;;0.93;96.35
41945;BME280;63122;52.424;13.458;2022-12-07T01:55:51;100508.88;;;0.87;96.49
41945;BME280;63122;52.424;13.458;2022-12-07T01:58:22;100504.75;;;0.83;97.01
41945;BME280;63122;52.424;13.458;2022-12-07T02:00:55;100505.13;;;0.77;97.90
41945;BME280;63122;52.424;13.458;2022-12-07T02:03:30;100501.25;;;0.69;97.99
41945;BME280;63122;52.424;13.458;2022-12-07T02:06:02;100496.31;;;0.65;97.48
41945;BME280;63122;52.424;13.458;2022-12-07T02:08:33;100502.44;;;0.64;98.54
41945;BME280;63122;52.424;13.458;2022-12-07T02:11:09;100497.16;;;0.65;98.50
41945;BME280;63122;52.424;13.458;2022-12-07T02:13:41;100499.84;;;0.64;98.38
41945;BME280;63122;52.424;13.458;2022-12-07T02:16:25;100492.91;;;0.64;98.77
41945;BME280;63122;52.424;13.458;2022-12-07T02:19:21;100497.34;;;0.62;98.93
41945;BME280;63122;52.424;13.458;2022-12-07T02:22:06;100488.81;;;0.75;99.14
41945;BME280;63122;52.424;13.458;2022-12-07T02:24:53;100490.75;;;0.56;98.67
41945;BME280;63122;52.424;13.458;2022-12-07T02:27:36;100488.53;;;0.50;98.58
41945;BME280;63122;52.424;13.458;2022-12-07T02:30:12;100487.03;;;0.46;99.14
41945;BME280;63122;52.424;13.458;2022-12-07T02:32:49;100490.94;;;0.53;99.55
41945;BME280;63122;52.424;13.458;2022-12-07T02:35:24;100483.59;;;0.46;99.05
41945;BME280;63122;52.424;13.458;2022-12-07T02:38:01;100475.38;;;0.53;98.37
41945;BME280;63122;52.424;13.458;2022-12-07T02:40:36;100474.16;;;0.45;98.70
41945;BME280;63122;52.424;13.458;2022-12-07T02:43:12;100473.59;;;0.54;99.21
41945;BME280;63122;52.424;13.458;2022-12-07T02:45:48;100475.25;;;0.55;99.52
41945;BME280;63122;52.424;13.458;2022-12-07T02:48:21;100472.28;;;0.47;99.24
41945;BME280;63122;52.424;13.458;2022-12-07T02:50:53;100471.72;;;0.41;98.92
41945;BME280;63122;52.424;13.458;2022-12-07T02:53:29;100458.28;;;0.35;98.91
41945;BME280;63122;52.424;13.458;2022-12-07T02:56:03;100468.59;;;0.51;98.65
41945;BME280;63122;52.424;13.458;2022-12-07T02:58:42;100467.84;;;0.49;99.18
41945;BME280;63122;52.424;13.458;2022-12-07T03:01:28;100460.59;;;0.39;99.54
41945;BME280;63122;52.424;13.458;2022-12-07T03:04:08;100451.22;;;0.37;99.49
41945;BME280;63122;52.424;13.458;2022-12-07T03:06:45;100444.47;;;0.49;99.23
41945;BME280;63122;52.424;13.458;2022-12-07T03:09:21;100441.44;;;0.42;99.48
41945;BME280;63122;52.424;13.458;2022-12-07T03:12:01;100443.44;;;0.22;100.00
41945;BME280;63122;52.424;13.458;2022-12-07T03:14:41;100437.31;;;0.23;100.00
41945;BME280;63122;52.424;13.458;2022-12-07T03:17:24;100440.66;;;0.25;100.00
41945;BME280;63122;52.424;13.458;2022-12-07T03:20:02;100433.81;;;0.39;100.00
41945;BME280;63122;52.424;13.458;2022-12-07T03:22:35;100430.28;;;0.40;100.00
41945;BME280;63122;52.424;13.458;2022-12-07T03:25:11;100419.34;;;0.35;100.00
41945;BME280;63122;52.424;13.458;2022-12-07T03:27:48;100415.63;;;0.39;100.00
41945;BME280;63122;52.424;13.458;2022-12-07T03:30:26;100408.16;;;0.34;100.00
41945;BME280;63122;52.424;13.458;2022-12-07T03:33:04;100408.16;;;0.34;100.00
41945;BME280;63122;52.424;13.458;2022-12-07T03:35:39;100400.63;;;0.30;100.00
41945;BME280;63122;52.424;13.458;2022-12-07T03:38:15;100397.47;;;0.24;100.00
41945;BME280;63122;52.424;13.458;2022-12-07T03:40:50;100401.81;;;0.24;100.00
41945;BME280;63122;52.424;13.458;2022-12-07T03:43:22;100381.72;;;0.27;100.00
41945;BME280;63122;52.424;13.458;2022-12-07T03:46:00;100381.25;;;0.35;100.00
41945;BME280;63122;52.424;13.458;2022-12-07T03:48:37;100378.38;;;0.25;100.00
41945;BME280;63122;52.424;13.458;2022-12-07T03:51:14;100376.72;;;0.24;100.00
41945;BME280;63122;52.424;13.458;2022-12-07T03:53:53;100371.97;;;0.17;100.00
41945;BME280;63122;52.424;13.458;2022-12-07T03:56:27;100363.38;;;0.31;100.00
41945;BME280;63122;52.424;13.458;2022-12-07T03:58:58;100361.88;;;0.12;100.00
41945;BME280;63122;52.424;13.458;2022-12-07T04:01:28;100347.13;;;0.27;100.00
41945;BME280;63122;52.424;13.458;2022-12-07T04:04:02;100351.31;;;0.30;100.00
41945;BME280;63122;52.424;13.458;2022-12-07T04:06:32;100349.91;;;0.24;100.00
41945;BME280;63122;52.424;13.458;2022-12-07T04:09:02;100345.31;;;0.29;100.00
41945;BME280;63122;52.424;13.458;2022-12-07T04:11:32;100346.69;;;0.20;100.00
41945;BME280;63122;52.424;13.458;2022-12-07T04:14:02;100341.06;;;0.28;100.00
41945;BME280;63122;52.424;13.458;2022-12-07T04:16:49;100340.38;;;0.39;100.00
41945;BME280;63122;52.424;13.458;2022-12-07T04:19:25;100336.31;;;0.20;100.00
41945;BME280;63122;52.424;13.458;2022-12-07T04:21:56;100347.88;;;0.14;100.00
41945;BME280;63122;52.424;13.458;2022-12-07T04:24:27;100341.97;;;0.12;100.00
41945;BME280;63122;52.424;13.458;2022-12-07T04:26:57;100332.34;;;0.00;100.00
41945;BME280;63122;52.424;13.458;2022-12-07T04:29:27;100328.31;;;0.09;100.00
41945;BME280;63122;52.424;13.458;2022-12-07T04:31:58;100333.34;;;-0.03;100.00
41945;BME280;63122;52.424;13.458;2022-12-07T04:34:31;100331.66;;;-0.04;100.00
41945;BME280;63122;52.424;13.458;2022-12-07T04:37:01;100320.25;;;-0.01;100.00
41945;BME280;63122;52.424;13.458;2022-12-07T04:39:33;100311.09;;;-0.07;100.00
41945;BME280;63122;52.424;13.458;2022-12-07T04:42:04;100313.88;;;0.05;100.00
41945;BME280;63122;52.424;13.458;2022-12-07T04:44:34;100310.63;;;0.16;100.00
41945;BME280;63122;52.424;13.458;2022-12-07T04:47:05;100308.63;;;0.06;100.00
41945;BME280;63122;52.424;13.458;2022-12-07T04:49:38;100304.06;;;0.10;100.00
41945;BME280;63122;52.424;13.458;2022-12-07T04:52:08;100309.63;;;0.04;100.00
41945;BME280;63122;52.424;13.458;2022-12-07T04:54:39;100302.19;;;0.12;100.00
41945;BME280;63122;52.424;13.458;2022-12-07T04:57:09;100306.66;;;0.10;100.00
41945;BME280;63122;52.424;13.458;2022-12-07T04:59:39;100300.06;;;0.19;100.00
41945;BME280;63122;52.424;13.458;2022-12-07T05:02:12;100282.75;;;0.19;100.00
41945;BME280;63122;52.424;13.458;2022-12-07T05:04:45;100289.69;;;0.19;100.00
41945;BME280;63122;52.424;13.458;2022-12-07T05:07:15;100297.66;;;0.16;100.00
41945;BME280;63122;52.424;13.458;2022-12-07T05:09:46;100291.75;;;0.13;100.00
41945;BME280;63122;52.424;13.458;2022-12-07T05:12:16;100287.22;;;0.17;100.00
41945;BME280;63122;52.424;13.458;2022-12-07T05:14:46;100290.34;;;0.22;100.00
41945;BME280;63122;52.424;13.458;2022-12-07T05:17:16;100298.59;;;0.29;100.00
41945;BME280;63122;52.424;13.458;2022-12-07T05:19:49;100289.97;;;0.28;100.00
41945;BME280;63122;52.424;13.458;2022-12-07T05:22:18;100279.22;;;0.35;100.00
41945;BME280;63122;52.424;13.458;2022-12-07T05:24:49;100293.03;;;0.35;100.00
41945;BME280;63122;52.424;13.458;2022-12-07T05:27:19;100285.88;;;0.39;100.00
41945;BME280;63122;52.424;13.458;2022-12-07T05:29:50;100283.13;;;0.42;100.00
41945;BME280;63122;52.424;13.458;2022-12-07T05:32:20;100276.06;;;0.44;100.00
41945;BME280;63122;52.424;13.458;2022-12-07T05:34:53;100265.47;;;0.47;100.00
41945;BME280;63122;52.424;13.458;2022-12-07T05:37:23;100270.88;;;0.44;100.00
41945;BME280;63122;52.424;13.458;2022-12-07T05:39:53;100271.59;;;0.46;100.00
41945;BME280;63122;52.424;13.458;2022-12-07T05:42:23;100273.47;;;0.44;100.00
41945;BME280;63122;52.424;13.458;2022-12-07T05:44:54;100266.09;;;0.51;100.00
41945;BME280;63122;52.424;13.458;2022-12-07T05:47:24;100258.13;;;0.54;100.00
41945;BME280;63122;52.424;13.458;2022-12-07T05:49:57;100263.44;;;0.52;100.00
41945;BME280;63122;52.424;13.458;2022-12-07T05:52:27;100263.63;;;0.49;100.00
41945;BME280;63122;52.424;13.458;2022-12-07T05:54:58;100257.31;;;0.53;100.00
41945;BME280;63122;52.424;13.458;2022-12-07T05:57:28;100261.38;;;0.57;100.00
41945;BME280;63122;52.424;13.458;2022-12-07T05:59:58;100270.75;;;0.60;100.00
41945;BME280;63122;52.424;13.458;2022-12-07T06:02:26;100262.31;;;0.56;100.00
41945;BME280;63122;52.424;13.458;2022-12-07T06:04:59;100257.56;;;0.63;100.00
41945;BME280;63122;52.424;13.458;2022-12-07T06:07:29;100251.53;;;0.63;100.00
41945;BME280;63122;52.424;13.458;2022-12-07T06:10:00;100242.59;;;0.67;100.00
41945;BME280;63122;52.424;13.458;2022-12-07T06:12:30;100231.50;;;0.65;100.00
41945;BME280;63122;52.424;13.458;2022-12-07T06:15:01;100236.31;;;0.71;100.00
41945;BME280;63122;52.424;13.458;2022-12-07T06:17:31;100226.84;;;0.70;100.00
41945;BME280;63122;52.424;13.458;2022-12-07T06:20:05;100223.22;;;0.73;100.00
41945;BME280;63122;52.424;13.458;2022-12-07T06:22:36;100225.91;;;0.71;100.00
41945;BME280;63122;52.424;13.458;2022-12-07T06:25:07;100222.94;;;0.77;100.00
41945;BME280;63122;52.424;13.458;2022-12-07T06:27:37;100224.59;;;0.78;100.00
41945;BME280;63122;52.424;13.458;2022-12-07T06:30:08;100223.13;;;0.74;100.00
41945;BME280;63122;52.424;13.458;2022-12-07T06:32:38;100225.53;;;0.77;100.00
41945;BME280;63122;52.424;13.458;2022-12-07T06:35:11;100217.00;;;0.75;100.00
41945;BME280;63122;52.424;13.458;2022-12-07T06:37:41;100218.66;;;0.76;100.00
41945;BME280;63122;52.424;13.458;2022-12-07T06:40:12;100224.47;;;0.80;100.00
41945;BME280;63122;52.424;13.458;2022-12-07T06:42:42;100221.88;;;0.80;100.00
41945;BME280;63122;52.424;13.458;2022-12-07T06:45:12;100219.06;;;0.83;100.00
41945;BME280;63122;52.424;13.458;2022-12-07T06:47:42;100212.03;;;0.85;100.00
41945;BME280;63122;52.424;13.458;2022-12-07T06:50:16;100221.09;;;0.92;100.00
41945;BME280;63122;52.424;13.458;2022-12-07T06:52:46;100221.09;;;0.92;100.00
41945;BME280;63122;52.424;13.458;2022-12-07T06:55:17;100227.66;;;0.98;100.00
41945;BME280;63122;52.424;13.458;2022-12-07T06:57:47;100220.69;;;0.98;100.00
41945;BME280;63122;52.424;13.458;2022-12-07T07:00:19;100220.41;;;1.03;100.00
41945;BME280;63122;52.424;13.458;2022-12-07T07:02:49;100216.88;;;1.04;100.00
41945;BME280;63122;52.424;13.458;2022-12-07T07:05:23;100211.47;;;1.07;100.00
41945;BME280;63122;52.424;13.458;2022-12-07T07:07:53;100220.00;;;1.09;100.00
41945;BME280;63122;52.424;13.458;2022-12-07T07:10:43;100212.00;;;1.12;100.00
41945;BME280;63122;52.424;13.458;2022-12-07T07:13:13;100206.78;;;1.12;100.00
41945;BME280;63122;52.424;13.458;2022-12-07T07:15:44;100215.09;;;1.18;100.00
41945;BME280;63122;52.424;13.458;2022-12-07T07:18:14;100217.63;;;1.19;100.00
41945;BME280;63122;52.424;13.458;2022-12-07T07:20:46;100224.47;;;1.20;100.00
41945;BME280;63122;52.424;13.458;2022-12-07T07:23:17;100215.97;;;1.31;100.00
41945;BME280;63122;52.424;13.458;2022-12-07T07:25:47;100215.44;;;1.26;100.00
41945;BME280;63122;52.424;13.458;2022-12-07T07:28:18;100214.53;;;1.27;100.00
41945;BME280;63122;52.424;13.458;2022-12-07T07:30:48;100218.44;;;1.33;100.00
41945;BME280;63122;52.424;13.458;2022-12-07T07:33:19;100209.13;;;1.43;100.00
41945;BME280;63122;52.424;13.458;2022-12-07T07:35:52;100227.19;;;1.44;100.00
41945;BME280;63122;52.424;13.458;2022-12-07T07:38:22;100212.97;;;1.50;100.00
41945;BME280;63122;52.424;13.458;2022-12-07T07:40:53;100216.50;;;1.49;100.00
41945;BME280;63122;52.424;13.458;2022-12-07T07:43:25;100215.44;;;1.52;100.00
41945;BME280;63122;52.424;13.458;2022-12-07T07:45:56;100212.66;;;1.55;100.00
41945;BME280;63122;52.424;13.458;2022-12-07T07:48:27;100213.47;;;1.55;100.00
41945;BME280;63122;52.424;13.458;2022-12-07T07:51:00;100218.16;;;1.63;100.00
41945;BME280;63122;52.424;13.458;2022-12-07T07:53:34;100212.13;;;1.63;100.00
41945;BME280;63122;52.424;13.458;2022-12-07T07:56:04;100207.84;;;1.62;100.00
41945;BME280;63122;52.424;13.458;2022-12-07T07:58:40;100213.69;;;1.65;100.00
41945;BME280;63122;52.424;13.458;2022-12-07T08:01:11;100213.56;;;1.67;100.00
41945;BME280;63122;52.424;13.458;2022-12-07T08:03:42;100209.94;;;1.69;100.00
41945;BME280;63122;52.424;13.458;2022-12-07T08:06:15;100215.97;;;1.70;100.00
41945;BME280;63122;52.424;13.458;2022-12-07T08:08:45;100217.72;;;1.69;100.00
41945;BME280;63122;52.424;13.458;2022-12-07T08:11:15;100207.84;;;1.75;100.00
41945;BME280;63122;52.424;13.458;2022-12-07T08:13:46;100224.16;;;1.77;100.00
41945;BME280;63122;52.424;13.458;2022-12-07T08:16:16;100218.88;;;1.78;100.00
41945;BME280;63122;52.424;13.458;2022-12-07T08:18:46;100230.94;;;1.79;100.00
41945;BME280;63122;52.424;13.458;2022-12-07T08:21:20;100230.00;;;1.80;100.00
41945;BME280;63122;52.424;13.458;2022-12-07T08:23:50;100222.19;;;1.80;100.00
41945;BME280;63122;52.424;13.458;2022-12-07T08:26:20;100226.47;;;1.81;100.00
41945;BME280;63122;52.424;13.458;2022-12-07T08:28:52;100232.50;;;1.82;100.00
41945;BME280;63122;52.424;13.458;2022-12-07T08:31:35;100239.03;;;1.87;100.00
41945;BME280;63122;52.424;13.458;2022-12-07T08:34:05;100230.50;;;1.85;100.00
41945;BME280;63122;52.424;13.458;2022-12-07T08:36:39;100232.31;;;1.85;100.00
41945;BME280;63122;52.424;13.458;2022-12-07T08:39:09;100212.31;;;1.85;100.00
41945;BME280;63122;52.424;13.458;2022-12-07T08:41:59;100224.16;;;1.90;100.00
41945;BME280;63122;52.424;13.458;2022-12-07T08:44:34;100232.81;;;1.90;100.00
41945;BME280;63122;52.424;13.458;2022-12-07T08:48:09;100234.34;;;1.93;96.44
41945;BME280;63122;52.424;13.458;2022-12-07T08:51:15;100230.09;;;1.92;97.73
41945;BME280;63122;52.424;13.458;2022-12-07T08:54:07;100241.44;;;1.91;99.79
41945;BME280;63122;52.424;13.458;2022-12-07T08:56:38;100240.63;;;1.90;99.43
41945;BME280;63122;52.424;13.458;2022-12-07T08:59:08;100245.81;;;1.90;100.00
41945;BME280;63122;52.424;13.458;2022-12-07T09:01:39;100244.97;;;1.90;100.00
41945;BME280;63122;52.424;13.458;2022-12-07T09:04:09;100248.41;;;1.90;100.00
41945;BME280;63122;52.424;13.458;2022-12-07T09:06:40;100251.13;;;1.89;100.00
41945;BME280;63122;52.424;13.458;2022-12-07T09:09:14;100259.63;;;1.91;100.00
41945;BME280;63122;52.424;13.458;2022-12-07T09:11:44;100249.34;;;1.89;100.00
41945;BME280;63122;52.424;13.458;2022-12-07T09:14:16;100252.56;;;1.93;100.00
41945;BME280;63122;52.424;13.458;2022-12-07T09:16:46;100243.22;;;1.90;100.00
41945;BME280;63122;52.424;13.458;2022-12-07T09:19:20;100252.47;;;1.94;99.69
41945;BME280;63122;52.424;13.458;2022-12-07T09:22:40;100259.63;;;1.91;97.20
41945;BME280;63122;52.424;13.458;2022-12-07T09:25:12;100264.13;;;1.89;96.38
41945;BME280;63122;52.424;13.458;2022-12-07T09:27:44;100257.16;;;1.89;96.67
41945;BME280;63122;52.424;13.458;2022-12-07T09:30:14;100269.84;;;1.94;93.26
41945;BME280;63122;52.424;13.458;2022-12-07T09:32:45;100263.09;;;1.91;93.21
41945;BME280;63122;52.424;13.458;2022-12-07T09:35:15;100263.09;;;1.91;93.29
41945;BME280;63122;52.424;13.458;2022-12-07T09:37:46;100265.38;;;1.96;93.07
41945;BME280;63122;52.424;13.458;2022-12-07T09:40:20;100263.38;;;1.99;90.55
41945;BME280;63122;52.424;13.458;2022-12-07T09:42:54;100266.84;;;2.00;91.71
41945;BME280;63122;52.424;13.458;2022-12-07T09:45:33;100272.97;;;1.99;91.50
41945;BME280;63122;52.424;13.458;2022-12-07T09:48:05;100259.84;;;2.00;88.23
41945;BME280;63122;52.424;13.458;2022-12-07T09:50:37;100285.66;;;1.91;86.85
41945;BME280;63122;52.424;13.458;2022-12-07T09:53:09;100282.31;;;1.89;86.71
41945;BME280;63122;52.424;13.458;2022-12-07T09:55:46;100273.50;;;1.91;87.62
41945;BME280;63122;52.424;13.458;2022-12-07T09:58:20;100284.72;;;1.92;87.90
41945;BME280;63122;52.424;13.458;2022-12-07T10:00:54;100277.63;;;1.94;87.50
41945;BME280;63122;52.424;13.458;2022-12-07T10:03:27;100292.22;;;1.96;87.72
41945;BME280;63122;52.424;13.458;2022-12-07T10:05:58;100278.78;;;1.90;87.08
41945;BME280;63122;52.424;13.458;2022-12-07T10:08:29;100286.72;;;1.88;87.27
41945;BME280;63122;52.424;13.458;2022-12-07T10:11:02;100283.28;;;1.87;87.79
41945;BME280;63122;52.424;13.458;2022-12-07T10:13:39;100282.31;;;1.89;87.65
41945;BME280;63122;52.424;13.458;2022-12-07T10:16:31;100286.00;;;1.86;87.79
41945;BME280;63122;52.424;13.458;2022-12-07T10:19:18;100290.03;;;1.90;86.85
41945;BME280;63122;52.424;13.458;2022-12-07T10:22:16;100282.84;;;1.81;86.64
41945;BME280;63122;52.424;13.458;2022-12-07T10:24:48;100282.53;;;1.85;87.36
41945;BME280;63122;52.424;13.458;2022-12-07T10:27:26;100288.97;;;1.80;87.03
41945;BME280;63122;52.424;13.458;2022-12-07T10:29:57;100279.00;;;1.86;87.69
41945;BME280;63122;52.424;13.458;2022-12-07T10:32:31;100296.59;;;1.83;87.49
41945;BME280;63122;52.424;13.458;2022-12-07T10:35:22;100289.41;;;1.86;87.52
41945;BME280;63122;52.424;13.458;2022-12-07T10:37:55;100293.78;;;1.86;87.54
41945;BME280;63122;52.424;13.458;2022-12-07T10:40:32;100290.84;;;1.91;88.02
41945;BME280;63122;52.424;13.458;2022-12-07T10:43:18;100286.50;;;1.91;86.98
41945;BME280;63122;52.424;13.458;2022-12-07T10:48:59;100280.56;;;1.89;87.89
41945;BME280;63122;52.424;13.458;2022-12-07T10:51:38;100287.22;;;1.93;87.91
41945;BME280;63122;52.424;13.458;2022-12-07T10:54:20;100284.41;;;1.96;88.01
41945;BME280;63122;52.424;13.458;2022-12-07T10:59:55;100283.16;;;2.02;88.70
41945;BME280;63122;52.424;13.458;2022-12-07T11:02:42;100278.28;;;1.97;88.99
41945;BME280;63122;52.424;13.458;2022-12-07T11:05:21;100270.97;;;2.03;90.16
41945;BME280;63122;52.424;13.458;2022-12-07T11:08:02;100271.47;;;2.08;90.31
41945;BME280;63122;52.424;13.458;2022-12-07T11:10:42;100267.75;;;2.12;90.12
41945;BME280;63122;52.424;13.458;2022-12-07T11:13:25;100273.78;;;2.12;89.97
41945;BME280;63122;52.424;13.458;2022-12-07T11:16:13;100269.94;;;2.18;90.62
41945;BME280;63122;52.424;13.458;2022-12-07T11:18:54;100277.53;;;2.21;91.00
41945;BME280;63122;52.424;13.458;2022-12-07T11:21:31;100268.88;;;2.21;91.36
41945;BME280;63122;52.424;13.458;2022-12-07T11:24:10;100273.97;;;2.22;91.49
41945;BME280;63122;52.424;13.458;2022-12-07T11:26:51;100265.53;;;2.19;91.90
41945;BME280;63122;52.424;13.458;2022-12-07T11:29:36;100267.94;;;2.22;93.21
41945;BME280;63122;52.424;13.458;2022-12-07T11:32:16;100256.38;;;2.26;92.22
41945;BME280;63122;52.424;13.458;2022-12-07T11:34:57;100262.84;;;2.20;92.06
41945;BME280;63122;52.424;13.458;2022-12-07T11:37:33;100266.25;;;2.21;92.30
41945;BME280;63122;52.424;13.458;2022-12-07T11:40:16;100251.19;;;2.26;91.83
41945;BME280;63122;52.424;13.458;2022-12-07T11:42:52;100254.59;;;2.26;92.56
41945;BME280;63122;52.424;13.458;2022-12-07T11:45:26;100258.66;;;2.30;92.95
41945;BME280;63122;52.424;13.458;2022-12-07T11:48:01;100251.69;;;2.31;92.22
41945;BME280;63122;52.424;13.458;2022-12-07T11:50:36;100253.44;;;2.30;92.48
41945;BME280;63122;52.424;13.458;2022-12-07T11:53:12;100265.63;;;2.30;92.09
41945;BME280;63122;52.424;13.458;2022-12-07T11:55:48;100252.41;;;2.33;91.85
41945;BME280;63122;52.424;13.458;2022-12-07T11:58:35;100251.34;;;2.36;91.95
41945;BME280;63122;52.424;13.458;2022-12-07T12:01:50;100250.63;;;2.34;90.56
41945;BME280;63122;52.424;13.458;2022-12-07T12:04:30;100251.16;;;2.39;89.34
41945;BME280;63122;52.424;13.458;2022-12-07T12:07:14;100250.06;;;2.41;89.65
41945;BME280;63122;52.424;13.458;2022-12-07T12:10:37;100256.84;;;2.44;89.70
41945;BME280;63122;52.424;13.458;2022-12-07T12:19:33;100244.81;;;2.54;89.42
41945;BME280;63122;52.424;13.458;2022-12-07T12:22:12;100238.69;;;2.55;89.46
41945;BME280;63122;52.424;13.458;2022-12-07T12:24:48;100245.28;;;2.48;89.96
41945;BME280;63122;52.424;13.458;2022-12-07T12:27:23;100237.25;;;2.51;90.54
41945;BME280;63122;52.424;13.458;2022-12-07T12:29:55;100243.63;;;2.47;90.47
41945;BME280;63122;52.424;13.458;2022-12-07T12:32:36;100239.94;;;2.50;90.64
41945;BME280;63122;52.424;13.458;2022-12-07T12:35:29;100241.00;;;2.47;91.61
41945;BME280;63122;52.424;13.458;2022-12-07T12:41:03;100233.69;;;2.52;91.53
41945;BME280;63122;52.424;13.458;2022-12-07T12:43:44;100233.47;;;2.55;90.52
41945;BME280;63122;52.424;13.458;2022-12-07T12:46:38;100233.69;;;2.52;91.29
41945;BME280;63122;52.424;13.458;2022-12-07T12:49:33;100231.72;;;2.56;90.81
41945;BME280;63122;52.424;13.458;2022-12-07T12:55:30;100224.63;;;2.58;91.61
41945;BME280;63122;52.424;13.458;2022-12-07T12:58:30;100217.16;;;2.65;91.59
41945;BME280;63122;52.424;13.458;2022-12-07T13:04:38;100222.38;;;2.65;91.46
41945;BME280;63122;52.424;13.458;2022-12-07T13:07:12;100213.53;;;2.67;90.79
41945;BME280;63122;52.424;13.458;2022-12-07T13:09:44;100215.31;;;2.67;91.22
41945;BME280;63122;52.424;13.458;2022-12-07T13:12:22;100233.31;;;2.70;90.87
41945;BME280;63122;52.424;13.458;2022-12-07T13:14:57;100214.25;;;2.69;91.26
41945;BME280;63122;52.424;13.458;2022-12-07T13:17:57;100217.34;;;2.74;90.96
41945;BME280;63122;52.424;13.458;2022-12-07T13:20:44;100213.69;;;2.77;90.52
41945;BME280;63122;52.424;13.458;2022-12-07T13:23:18;100215.44;;;2.77;90.05
41945;BME280;63122;52.424;13.458;2022-12-07T13:25:55;100213.69;;;2.77;90.11
41945;BME280;63122;52.424;13.458;2022-12-07T13:28:36;100216.91;;;2.81;89.94
41945;BME280;63122;52.424;13.458;2022-12-07T13:33:59;100204.00;;;2.79;90.12
41945;BME280;63122;52.424;13.458;2022-12-07T13:36:39;100205.75;;;2.79;88.95
41945;BME280;63122;52.424;13.458;2022-12-07T13:39:19;100213.56;;;2.79;89.28
41945;BME280;63122;52.424;13.458;2022-12-07T13:41:52;100203.88;;;2.81;89.26
41945;BME280;63122;52.424;13.458;2022-12-07T13:44:27;100203.13;;;2.79;87.95
41945;BME280;63122;52.424;13.458;2022-12-07T13:47:04;100199.72;;;2.78;88.29
41945;BME280;63122;52.424;13.458;2022-12-07T13:49:38;100213.56;;;2.79;88.73
41945;BME280;63122;52.424;13.458;2022-12-07T13:52:21;100210.84;;;2.80;88.94